sensor_id;sensor_type;location;lat;lon;timestamp;temperature;humidity
7476;DHT22;3779;49.216;8.650;2024-02-26T00:01:34;19.70;38.30
7476;DHT22;3779;49.216;8.650;2024-02-26T00:04:20;19.70;39.70
7476;DHT22;3779;49.216;8.650;2024-02-26T00:07:07;19.70;38.80
7476;DHT22;3779;49.216;8.650;2024-02-26T00:09:53;19.70;40.50
7476;DHT22;3779;49.216;8.650;2024-02-26T00:12:40;19.70;39.80
7476;DHT22;3779;49.216;8.650;2024-02-26T00:15:37;19.70;38.70
7476;DHT22;3779;49.216;8.650;2024-02-26T00:18:22;19.70;40.00
7476;DHT22;3779;49.216;8.650;2024-02-26T00:21:08;19.60;36.90
7476;DHT22;3779;49.216;8.650;2024-02-26T00:23:54;19.50;39.80
7476;DHT22;3779;49.216;8.650;2024-02-26T00:26:40;19.40;39.50
7476;DHT22;3779;49.216;8.650;2024-02-26T00:29:25;19.40;42.50
7476;DHT22;3779;49.216;8.650;2024-02-26T00:32:11;19.50;40.30
7476;DHT22;3779;49.216;8.650;2024-02-26T00:34:57;19.70;39.90
7476;DHT22;3779;49.216;8.650;2024-02-26T00:37:43;19.60;39.00
7476;DHT22;3779;49.216;8.650;2024-02-26T00:40:29;19.60;39.90
7476;DHT22;3779;49.216;8.650;2024-02-26T00:43:15;19.60;39.30
7476;DHT22;3779;49.216;8.650;2024-02-26T00:46:01;19.70;39.80
7476;DHT22;3779;49.216;8.650;2024-02-26T00:48:47;19.70;40.20
7476;DHT22;3779;49.216;8.650;2024-02-26T00:51:33;19.70;39.40
7476;DHT22;3779;49.216;8.650;2024-02-26T00:54:19;19.70;38.70
7476;DHT22;3779;49.216;8.650;2024-02-26T00:57:05;19.60;38.90
7476;DHT22;3779;49.216;8.650;2024-02-26T00:59:51;19.60;38.40
7476;DHT22;3779;49.216;8.650;2024-02-26T01:02:37;19.40;35.80
7476;DHT22;3779;49.216;8.650;2024-02-26T01:05:23;19.30;39.20
7476;DHT22;3779;49.216;8.650;2024-02-26T01:08:10;19.40;40.20
7476;DHT22;3779;49.216;8.650;2024-02-26T01:10:55;19.50;39.10
7476;DHT22;3779;49.216;8.650;2024-02-26T01:13:41;19.50;39.10
7476;DHT22;3779;49.216;8.650;2024-02-26T01:16:27;19.60;38.30
7476;DHT22;3779;49.216;8.650;2024-02-26T01:19:14;19.50;38.50
7476;DHT22;3779;49.216;8.650;2024-02-26T01:22:00;19.50;40.10
7476;DHT22;3779;49.216;8.650;2024-02-26T01:24:46;19.50;40.10
7476;DHT22;3779;49.216;8.650;2024-02-26T01:27:32;19.60;39.20
7476;DHT22;3779;49.216;8.650;2024-02-26T01:30:18;19.50;39.60
7476;DHT22;3779;49.216;8.650;2024-02-26T01:33:03;19.70;39.50
7476;DHT22;3779;49.216;8.650;2024-02-26T01:35:49;19.60;40.20
7476;DHT22;3779;49.216;8.650;2024-02-26T01:38:35;19.60;40.10
7476;DHT22;3779;49.216;8.650;2024-02-26T01:41:21;19.60;39.70
7476;DHT22;3779;49.216;8.650;2024-02-26T01:44:07;19.60;40.90
7476;DHT22;3779;49.216;8.650;2024-02-26T01:46:53;19.60;42.10
7476;DHT22;3779;49.216;8.650;2024-02-26T01:49:39;19.60;40.80
7476;DHT22;3779;49.216;8.650;2024-02-26T01:52:25;19.60;40.90
7476;DHT22;3779;49.216;8.650;2024-02-26T01:55:12;19.60;40.50
7476;DHT22;3779;49.216;8.650;2024-02-26T01:58:00;19.60;41.80
7476;DHT22;3779;49.216;8.650;2024-02-26T02:00:46;19.60;40.90
7476;DHT22;3779;49.216;8.650;2024-02-26T02:03:32;19.60;40.20
7476;DHT22;3779;49.216;8.650;2024-02-26T02:06:18;19.60;41.20
7476;DHT22;3779;49.216;8.650;2024-02-26T02:09:04;19.60;39.80
7476;DHT22;3779;49.216;8.650;2024-02-26T02:11:52;19.50;39.30
7476;DHT22;3779;49.216;8.650;2024-02-26T02:14:38;19.50;40.40
7476;DHT22;3779;49.216;8.650;2024-02-26T02:17:24;19.50;40.90
7476;DHT22;3779;49.216;8.650;2024-02-26T02:20:15;19.50;40.50
7476;DHT22;3779;49.216;8.650;2024-02-26T02:23:01;19.60;40.60
7476;DHT22;3779;49.216;8.650;2024-02-26T02:25:47;19.60;40.40
7476;DHT22;3779;49.216;8.650;2024-02-26T02:28:33;19.50;40.80
7476;DHT22;3779;49.216;8.650;2024-02-26T02:31:19;19.50;41.10
7476;DHT22;3779;49.216;8.650;2024-02-26T02:34:05;19.50;41.10
7476;DHT22;3779;49.216;8.650;2024-02-26T02:36:54;19.50;41.60
7476;DHT22;3779;49.216;8.650;2024-02-26T02:39:40;19.50;41.60
7476;DHT22;3779;49.216;8.650;2024-02-26T02:42:28;19.50;41.30
7476;DHT22;3779;49.216;8.650;2024-02-26T02:45:14;19.50;42.00
7476;DHT22;3779;49.216;8.650;2024-02-26T02:48:00;19.50;43.00
7476;DHT22;3779;49.216;8.650;2024-02-26T02:50:45;19.50;42.00
7476;DHT22;3779;49.216;8.650;2024-02-26T02:53:31;19.40;41.10
7476;DHT22;3779;49.216;8.650;2024-02-26T02:56:17;19.40;42.70
7476;DHT22;3779;49.216;8.650;2024-02-26T02:59:03;19.40;42.60
7476;DHT22;3779;49.216;8.650;2024-02-26T03:01:49;19.50;42.10
7476;DHT22;3779;49.216;8.650;2024-02-26T03:04:34;19.50;42.10
7476;DHT22;3779;49.216;8.650;2024-02-26T03:07:20;19.50;42.30
7476;DHT22;3779;49.216;8.650;2024-02-26T03:10:06;19.50;41.80
7476;DHT22;3779;49.216;8.650;2024-02-26T03:12:53;19.50;41.70
7476;DHT22;3779;49.216;8.650;2024-02-26T03:15:38;19.40;41.60
7476;DHT22;3779;49.216;8.650;2024-02-26T03:18:24;19.30;41.30
7476;DHT22;3779;49.216;8.650;2024-02-26T03:21:10;19.30;42.70
7476;DHT22;3779;49.216;8.650;2024-02-26T03:23:56;19.30;42.10
7476;DHT22;3779;49.216;8.650;2024-02-26T03:26:42;19.30;43.20
7476;DHT22;3779;49.216;8.650;2024-02-26T03:29:28;19.40;43.40
7476;DHT22;3779;49.216;8.650;2024-02-26T03:32:14;19.40;43.00
7476;DHT22;3779;49.216;8.650;2024-02-26T03:35:00;19.50;43.30
7476;DHT22;3779;49.216;8.650;2024-02-26T03:37:46;19.50;44.10
7476;DHT22;3779;49.216;8.650;2024-02-26T03:40:32;19.50;43.30
7476;DHT22;3779;49.216;8.650;2024-02-26T03:43:18;19.60;44.20
7476;DHT22;3779;49.216;8.650;2024-02-26T03:46:07;19.60;44.50
7476;DHT22;3779;49.216;8.650;2024-02-26T03:48:53;19.60;43.60
7476;DHT22;3779;49.216;8.650;2024-02-26T03:51:39;19.50;44.30
7476;DHT22;3779;49.216;8.650;2024-02-26T03:54:24;19.50;44.30
7476;DHT22;3779;49.216;8.650;2024-02-26T03:57:10;19.60;44.30
7476;DHT22;3779;49.216;8.650;2024-02-26T03:59:56;19.70;44.30
7476;DHT22;3779;49.216;8.650;2024-02-26T04:02:42;19.60;44.10
7476;DHT22;3779;49.216;8.650;2024-02-26T04:05:28;19.50;43.90
7476;DHT22;3779;49.216;8.650;2024-02-26T04:08:13;19.50;44.90
7476;DHT22;3779;49.216;8.650;2024-02-26T04:10:59;19.40;44.80
7476;DHT22;3779;49.216;8.650;2024-02-26T04:13:45;19.40;45.30
7476;DHT22;3779;49.216;8.650;2024-02-26T04:16:36;19.50;44.40
7476;DHT22;3779;49.216;8.650;2024-02-26T04:19:22;19.60;44.60
7476;DHT22;3779;49.216;8.650;2024-02-26T04:22:07;19.60;44.30
7476;DHT22;3779;49.216;8.650;2024-02-26T04:24:53;19.60;43.60
7476;DHT22;3779;49.216;8.650;2024-02-26T04:27:39;19.60;44.20
7476;DHT22;3779;49.216;8.650;2024-02-26T04:30:25;19.60;44.70
7476;DHT22;3779;49.216;8.650;2024-02-26T04:33:10;19.50;44.30
7476;DHT22;3779;49.216;8.650;2024-02-26T04:35:56;19.60;45.00
7476;DHT22;3779;49.216;8.650;2024-02-26T04:38:43;19.60;44.80
7476;DHT22;3779;49.216;8.650;2024-02-26T04:41:29;19.50;43.80
7476;DHT22;3779;49.216;8.650;2024-02-26T04:44:14;19.40;44.20
7476;DHT22;3779;49.216;8.650;2024-02-26T04:47:00;19.40;43.90
7476;DHT22;3779;49.216;8.650;2024-02-26T04:49:47;19.40;45.20
7476;DHT22;3779;49.216;8.650;2024-02-26T04:52:33;19.50;44.80
7476;DHT22;3779;49.216;8.650;2024-02-26T04:55:19;19.50;44.30
7476;DHT22;3779;49.216;8.650;2024-02-26T04:58:05;19.50;44.30
7476;DHT22;3779;49.216;8.650;2024-02-26T05:00:50;19.60;44.30
7476;DHT22;3779;49.216;8.650;2024-02-26T05:03:36;19.50;44.10
7476;DHT22;3779;49.216;8.650;2024-02-26T05:06:22;19.50;44.20
7476;DHT22;3779;49.216;8.650;2024-02-26T05:09:08;19.70;44.00
7476;DHT22;3779;49.216;8.650;2024-02-26T05:11:53;19.60;44.30
7476;DHT22;3779;49.216;8.650;2024-02-26T05:14:39;19.60;44.00
7476;DHT22;3779;49.216;8.650;2024-02-26T05:17:25;19.60;44.40
7476;DHT22;3779;49.216;8.650;2024-02-26T05:20:11;19.60;44.30
7476;DHT22;3779;49.216;8.650;2024-02-26T05:22:56;19.70;44.60
7476;DHT22;3779;49.216;8.650;2024-02-26T05:25:44;19.70;45.20
7476;DHT22;3779;49.216;8.650;2024-02-26T05:28:32;19.50;44.50
7476;DHT22;3779;49.216;8.650;2024-02-26T05:31:19;19.50;45.50
7476;DHT22;3779;49.216;8.650;2024-02-26T05:34:04;19.60;45.60
7476;DHT22;3779;49.216;8.650;2024-02-26T05:36:50;19.70;45.40
7476;DHT22;3779;49.216;8.650;2024-02-26T05:39:36;19.70;45.00
7476;DHT22;3779;49.216;8.650;2024-02-26T05:42:22;19.70;44.90
7476;DHT22;3779;49.216;8.650;2024-02-26T05:45:08;19.90;45.60
7476;DHT22;3779;49.216;8.650;2024-02-26T05:47:53;19.80;45.60
7476;DHT22;3779;49.216;8.650;2024-02-26T05:50:39;19.90;45.30
7476;DHT22;3779;49.216;8.650;2024-02-26T05:53:25;19.80;44.80
7476;DHT22;3779;49.216;8.650;2024-02-26T05:56:11;19.80;45.00
7476;DHT22;3779;49.216;8.650;2024-02-26T05:58:56;19.70;44.70
7476;DHT22;3779;49.216;8.650;2024-02-26T06:01:42;19.60;45.30
7476;DHT22;3779;49.216;8.650;2024-02-26T06:04:28;19.50;45.20
7476;DHT22;3779;49.216;8.650;2024-02-26T06:07:14;19.50;45.30
7476;DHT22;3779;49.216;8.650;2024-02-26T06:09:59;19.50;45.60
7476;DHT22;3779;49.216;8.650;2024-02-26T06:12:45;19.50;45.80
7476;DHT22;3779;49.216;8.650;2024-02-26T06:15:31;19.60;45.00
7476;DHT22;3779;49.216;8.650;2024-02-26T06:18:17;19.60;45.70
7476;DHT22;3779;49.216;8.650;2024-02-26T06:21:03;19.70;44.40
7476;DHT22;3779;49.216;8.650;2024-02-26T06:23:50;19.60;44.80
7476;DHT22;3779;49.216;8.650;2024-02-26T06:26:36;19.60;44.80
7476;DHT22;3779;49.216;8.650;2024-02-26T06:29:22;19.60;45.00
7476;DHT22;3779;49.216;8.650;2024-02-26T06:32:07;19.60;44.40
7476;DHT22;3779;49.216;8.650;2024-02-26T06:34:53;19.60;45.40
7476;DHT22;3779;49.216;8.650;2024-02-26T06:37:39;19.60;45.10
7476;DHT22;3779;49.216;8.650;2024-02-26T06:40:25;19.70;44.90
7476;DHT22;3779;49.216;8.650;2024-02-26T06:43:11;19.70;44.60
7476;DHT22;3779;49.216;8.650;2024-02-26T07:57:42;19.60;46.00
7476;DHT22;3779;49.216;8.650;2024-02-26T08:00:28;19.60;46.00
7476;DHT22;3779;49.216;8.650;2024-02-26T08:03:14;19.60;45.30
7476;DHT22;3779;49.216;8.650;2024-02-26T08:06:01;19.60;45.80
7476;DHT22;3779;49.216;8.650;2024-02-26T08:08:47;19.70;45.70
7476;DHT22;3779;49.216;8.650;2024-02-26T08:11:33;19.70;45.60
7476;DHT22;3779;49.216;8.650;2024-02-26T08:14:18;19.70;45.90
7476;DHT22;3779;49.216;8.650;2024-02-26T08:17:04;19.70;46.30
7476;DHT22;3779;49.216;8.650;2024-02-26T08:19:50;19.70;46.00
7476;DHT22;3779;49.216;8.650;2024-02-26T08:22:36;19.70;46.50
7476;DHT22;3779;49.216;8.650;2024-02-26T08:25:23;19.70;46.80
7476;DHT22;3779;49.216;8.650;2024-02-26T08:28:09;19.70;46.30
7476;DHT22;3779;49.216;8.650;2024-02-26T08:30:58;19.70;46.40
7476;DHT22;3779;49.216;8.650;2024-02-26T08:33:44;19.70;46.00
7476;DHT22;3779;49.216;8.650;2024-02-26T08:36:32;19.70;46.20
7476;DHT22;3779;49.216;8.650;2024-02-26T08:39:18;19.70;46.10
7476;DHT22;3779;49.216;8.650;2024-02-26T08:42:04;19.70;46.50
7476;DHT22;3779;49.216;8.650;2024-02-26T08:44:50;19.60;46.70
7476;DHT22;3779;49.216;8.650;2024-02-26T08:47:36;19.60;47.20
7476;DHT22;3779;49.216;8.650;2024-02-26T08:50:22;19.60;46.90
7476;DHT22;3779;49.216;8.650;2024-02-26T08:53:08;19.80;46.30
7476;DHT22;3779;49.216;8.650;2024-02-26T08:55:54;19.70;46.70
7476;DHT22;3779;49.216;8.650;2024-02-26T08:58:40;19.70;46.20
7476;DHT22;3779;49.216;8.650;2024-02-26T09:01:25;19.80;46.90
7476;DHT22;3779;49.216;8.650;2024-02-26T09:04:11;19.70;47.30
7476;DHT22;3779;49.216;8.650;2024-02-26T09:06:57;19.80;46.80
7476;DHT22;3779;49.216;8.650;2024-02-26T09:09:43;19.80;47.40
7476;DHT22;3779;49.216;8.650;2024-02-26T09:12:29;19.90;47.00
7476;DHT22;3779;49.216;8.650;2024-02-26T09:15:14;19.80;46.70
7476;DHT22;3779;49.216;8.650;2024-02-26T09:18:00;19.80;46.70
7476;DHT22;3779;49.216;8.650;2024-02-26T09:20:47;19.90;46.80
7476;DHT22;3779;49.216;8.650;2024-02-26T09:23:32;19.80;46.20
7476;DHT22;3779;49.216;8.650;2024-02-26T09:26:18;19.90;46.40
7476;DHT22;3779;49.216;8.650;2024-02-26T09:29:04;19.80;46.60
7476;DHT22;3779;49.216;8.650;2024-02-26T09:31:51;19.50;46.10
7476;DHT22;3779;49.216;8.650;2024-02-26T09:34:36;19.50;47.20
7476;DHT22;3779;49.216;8.650;2024-02-26T09:37:25;19.60;47.20
7476;DHT22;3779;49.216;8.650;2024-02-26T09:40:11;19.50;45.70
7476;DHT22;3779;49.216;8.650;2024-02-26T09:43:00;19.60;46.80
7476;DHT22;3779;49.216;8.650;2024-02-26T09:45:54;19.50;45.90
7476;DHT22;3779;49.216;8.650;2024-02-26T09:48:42;19.50;47.30
7476;DHT22;3779;49.216;8.650;2024-02-26T09:51:27;19.60;47.30
7476;DHT22;3779;49.216;8.650;2024-02-26T09:54:15;19.60;48.00
7476;DHT22;3779;49.216;8.650;2024-02-26T09:57:03;19.60;47.40
7476;DHT22;3779;49.216;8.650;2024-02-26T09:59:53;19.60;48.20
7476;DHT22;3779;49.216;8.650;2024-02-26T10:02:46;19.70;48.30
7476;DHT22;3779;49.216;8.650;2024-02-26T10:05:33;19.70;46.50
7476;DHT22;3779;49.216;8.650;2024-02-26T10:08:20;19.70;46.40
7476;DHT22;3779;49.216;8.650;2024-02-26T10:11:07;19.80;46.40
7476;DHT22;3779;49.216;8.650;2024-02-26T10:13:53;19.80;46.60
7476;DHT22;3779;49.216;8.650;2024-02-26T10:16:39;19.70;47.50
7476;DHT22;3779;49.216;8.650;2024-02-26T10:19:26;19.80;47.50
7476;DHT22;3779;49.216;8.650;2024-02-26T10:22:12;19.90;47.30
7476;DHT22;3779;49.216;8.650;2024-02-26T10:24:58;19.80;48.00
7476;DHT22;3779;49.216;8.650;2024-02-26T10:27:43;19.90;46.90
7476;DHT22;3779;49.216;8.650;2024-02-26T10:30:31;19.70;47.00
7476;DHT22;3779;49.216;8.650;2024-02-26T10:33:16;19.70;47.00
7476;DHT22;3779;49.216;8.650;2024-02-26T10:36:06;19.70;46.80
7476;DHT22;3779;49.216;8.650;2024-02-26T10:38:54;19.70;46.90
7476;DHT22;3779;49.216;8.650;2024-02-26T10:41:44;19.80;47.10
7476;DHT22;3779;49.216;8.650;2024-02-26T10:44:30;19.80;47.70
7476;DHT22;3779;49.216;8.650;2024-02-26T10:47:16;19.80;47.20
7476;DHT22;3779;49.216;8.650;2024-02-26T10:50:03;19.80;47.50
7476;DHT22;3779;49.216;8.650;2024-02-26T10:52:49;19.80;48.00
7476;DHT22;3779;49.216;8.650;2024-02-26T10:55:36;19.90;47.50
7476;DHT22;3779;49.216;8.650;2024-02-26T10:58:23;19.90;47.70
7476;DHT22;3779;49.216;8.650;2024-02-26T11:01:11;19.90;47.50
7476;DHT22;3779;49.216;8.650;2024-02-26T11:03:57;19.90;47.00
7476;DHT22;3779;49.216;8.650;2024-02-26T11:06:47;19.90;46.70
7476;DHT22;3779;49.216;8.650;2024-02-26T11:09:35;19.90;46.40
7476;DHT22;3779;49.216;8.650;2024-02-26T11:12:22;19.90;46.30
7476;DHT22;3779;49.216;8.650;2024-02-26T11:15:09;19.70;46.20
7476;DHT22;3779;49.216;8.650;2024-02-26T11:17:56;19.70;47.70
7476;DHT22;3779;49.216;8.650;2024-02-26T11:20:43;19.70;47.80
7476;DHT22;3779;49.216;8.650;2024-02-26T11:23:29;19.70;48.20
7476;DHT22;3779;49.216;8.650;2024-02-26T11:26:16;19.80;48.00
7476;DHT22;3779;49.216;8.650;2024-02-26T11:29:03;19.90;47.80
7476;DHT22;3779;49.216;8.650;2024-02-26T11:31:50;19.90;47.00
7476;DHT22;3779;49.216;8.650;2024-02-26T11:34:36;20.00;47.20
7476;DHT22;3779;49.216;8.650;2024-02-26T11:37:22;20.00;47.20
7476;DHT22;3779;49.216;8.650;2024-02-26T11:40:11;20.00;47.20
7476;DHT22;3779;49.216;8.650;2024-02-26T11:42:58;19.90;47.80
7476;DHT22;3779;49.216;8.650;2024-02-26T11:45:49;20.00;47.40
7476;DHT22;3779;49.216;8.650;2024-02-26T11:48:35;19.90;48.10
7476;DHT22;3779;49.216;8.650;2024-02-26T11:51:28;19.90;48.60
7476;DHT22;3779;49.216;8.650;2024-02-26T11:57:39;19.80;48.80
7476;DHT22;3779;49.216;8.650;2024-02-26T12:00:25;19.90;48.60
7476;DHT22;3779;49.216;8.650;2024-02-26T12:03:12;19.80;48.70
7476;DHT22;3779;49.216;8.650;2024-02-26T12:05:58;19.90;48.40
7476;DHT22;3779;49.216;8.650;2024-02-26T12:08:44;19.90;48.10
7476;DHT22;3779;49.216;8.650;2024-02-26T12:11:30;20.00;47.80
7476;DHT22;3779;49.216;8.650;2024-02-26T12:14:18;19.90;48.30
7476;DHT22;3779;49.216;8.650;2024-02-26T12:17:04;19.90;48.10
7476;DHT22;3779;49.216;8.650;2024-02-26T12:19:52;19.80;48.90
7476;DHT22;3779;49.216;8.650;2024-02-26T12:22:40;19.90;49.10
7476;DHT22;3779;49.216;8.650;2024-02-26T12:25:27;19.90;48.50
7476;DHT22;3779;49.216;8.650;2024-02-26T12:28:17;19.90;48.40
7476;DHT22;3779;49.216;8.650;2024-02-26T12:31:04;20.00;48.40
7476;DHT22;3779;49.216;8.650;2024-02-26T12:33:50;19.90;48.50
7476;DHT22;3779;49.216;8.650;2024-02-26T12:36:36;19.90;48.90
7476;DHT22;3779;49.216;8.650;2024-02-26T12:39:24;19.90;49.00
7476;DHT22;3779;49.216;8.650;2024-02-26T12:42:10;19.90;48.70
7476;DHT22;3779;49.216;8.650;2024-02-26T12:44:55;19.90;48.20
7476;DHT22;3779;49.216;8.650;2024-02-26T12:47:42;19.90;48.80
7476;DHT22;3779;49.216;8.650;2024-02-26T12:50:29;19.90;49.00
7476;DHT22;3779;49.216;8.650;2024-02-26T12:53:17;19.90;48.90
7476;DHT22;3779;49.216;8.650;2024-02-26T12:56:08;19.90;49.20
7476;DHT22;3779;49.216;8.650;2024-02-26T12:58:56;19.90;48.90
7476;DHT22;3779;49.216;8.650;2024-02-26T13:01:42;19.90;48.40
7476;DHT22;3779;49.216;8.650;2024-02-26T13:04:29;19.90;48.70
7476;DHT22;3779;49.216;8.650;2024-02-26T13:07:23;19.90;48.90
7476;DHT22;3779;49.216;8.650;2024-02-26T13:10:11;19.90;48.60
7476;DHT22;3779;49.216;8.650;2024-02-26T13:13:01;20.00;48.80
7476;DHT22;3779;49.216;8.650;2024-02-26T13:15:48;20.00;48.80
7476;DHT22;3779;49.216;8.650;2024-02-26T13:18:34;20.00;48.90
7476;DHT22;3779;49.216;8.650;2024-02-26T13:21:20;20.00;47.90
7476;DHT22;3779;49.216;8.650;2024-02-26T13:24:07;20.00;48.40
7476;DHT22;3779;49.216;8.650;2024-02-26T13:26:56;20.00;48.50
7476;DHT22;3779;49.216;8.650;2024-02-26T13:29:42;20.10;48.60
7476;DHT22;3779;49.216;8.650;2024-02-26T13:32:29;20.00;48.40
7476;DHT22;3779;49.216;8.650;2024-02-26T13:52:09;19.90;48.40
7476;DHT22;3779;49.216;8.650;2024-02-26T13:58:14;19.90;48.90
7476;DHT22;3779;49.216;8.650;2024-02-26T14:17:25;19.90;48.10
7476;DHT22;3779;49.216;8.650;2024-02-26T14:23:23;20.00;48.70
7476;DHT22;3779;49.216;8.650;2024-02-26T14:53:42;19.90;49.50
7476;DHT22;3779;49.216;8.650;2024-02-26T15:08:40;19.90;49.30
7476;DHT22;3779;49.216;8.650;2024-02-26T15:11:30;19.90;48.90
7476;DHT22;3779;49.216;8.650;2024-02-26T15:14:17;19.90;49.30
7476;DHT22;3779;49.216;8.650;2024-02-26T15:28:24;20.00;48.90
7476;DHT22;3779;49.216;8.650;2024-02-26T15:31:04;20.00;48.70
7476;DHT22;3779;49.216;8.650;2024-02-26T15:33:50;20.00;48.30
7476;DHT22;3779;49.216;8.650;2024-02-26T15:36:39;20.00;48.70
7476;DHT22;3779;49.216;8.650;2024-02-26T15:39:26;20.00;48.80
7476;DHT22;3779;49.216;8.650;2024-02-26T15:42:12;20.10;49.00
7476;DHT22;3779;49.216;8.650;2024-02-26T15:44:57;19.90;49.00
7476;DHT22;3779;49.216;8.650;2024-02-26T15:47:46;20.00;49.10
7476;DHT22;3779;49.216;8.650;2024-02-26T15:50:37;20.00;49.10
7476;DHT22;3779;49.216;8.650;2024-02-26T15:53:24;20.00;49.00
7476;DHT22;3779;49.216;8.650;2024-02-26T15:56:10;20.00;49.00
7476;DHT22;3779;49.216;8.650;2024-02-26T15:58:58;20.00;48.90
7476;DHT22;3779;49.216;8.650;2024-02-26T16:01:44;20.00;49.10
7476;DHT22;3779;49.216;8.650;2024-02-26T16:04:30;20.00;49.10
7476;DHT22;3779;49.216;8.650;2024-02-26T16:07:23;20.00;48.90
7476;DHT22;3779;49.216;8.650;2024-02-26T16:10:14;20.00;48.90
7476;DHT22;3779;49.216;8.650;2024-02-26T16:13:00;20.10;48.90
7476;DHT22;3779;49.216;8.650;2024-02-26T16:16:03;20.00;48.80
7476;DHT22;3779;49.216;8.650;2024-02-26T16:18:50;20.00;49.00
7476;DHT22;3779;49.216;8.650;2024-02-26T16:21:41;20.10;48.90
7476;DHT22;3779;49.216;8.650;2024-02-26T16:24:35;20.10;48.70
7476;DHT22;3779;49.216;8.650;2024-02-26T16:27:25;20.00;48.50
7476;DHT22;3779;49.216;8.650;2024-02-26T16:30:16;20.10;48.70
7476;DHT22;3779;49.216;8.650;2024-02-26T16:36:42;20.00;48.70
7476;DHT22;3779;49.216;8.650;2024-02-26T16:39:30;20.10;48.00
7476;DHT22;3779;49.216;8.650;2024-02-26T16:42:24;20.30;47.80
7476;DHT22;3779;49.216;8.650;2024-02-26T16:45:09;20.00;48.40
7476;DHT22;3779;49.216;8.650;2024-02-26T16:47:57;20.00;48.50
7476;DHT22;3779;49.216;8.650;2024-02-26T16:50:42;20.00;48.40
7476;DHT22;3779;49.216;8.650;2024-02-26T16:53:29;20.20;48.60
7476;DHT22;3779;49.216;8.650;2024-02-26T16:56:15;20.00;48.40
7476;DHT22;3779;49.216;8.650;2024-02-26T16:59:02;20.00;48.30
7476;DHT22;3779;49.216;8.650;2024-02-26T17:01:49;20.00;48.40
7476;DHT22;3779;49.216;8.650;2024-02-26T17:04:35;20.10;48.50
7476;DHT22;3779;49.216;8.650;2024-02-26T17:07:21;20.10;48.60
7476;DHT22;3779;49.216;8.650;2024-02-26T17:10:10;20.20;48.40
7476;DHT22;3779;49.216;8.650;2024-02-26T17:12:56;20.10;48.30
7476;DHT22;3779;49.216;8.650;2024-02-26T17:15:42;20.00;48.80
7476;DHT22;3779;49.216;8.650;2024-02-26T17:18:27;19.90;49.10
7476;DHT22;3779;49.216;8.650;2024-02-26T17:21:34;20.00;49.10
7476;DHT22;3779;49.216;8.650;2024-02-26T17:24:20;20.00;48.80
7476;DHT22;3779;49.216;8.650;2024-02-26T18:41:50;20.50;51.30
7476;DHT22;3779;49.216;8.650;2024-02-26T18:45:17;20.60;51.00
7476;DHT22;3779;49.216;8.650;2024-02-26T19:02:10;20.50;51.00
7476;DHT22;3779;49.216;8.650;2024-02-26T19:05:00;20.50;51.60
7476;DHT22;3779;49.216;8.650;2024-02-26T19:07:45;20.50;50.30
7476;DHT22;3779;49.216;8.650;2024-02-26T19:13:28;20.60;49.70
7476;DHT22;3779;49.216;8.650;2024-02-26T19:16:19;20.60;48.70
7476;DHT22;3779;49.216;8.650;2024-02-26T19:19:09;20.60;50.20
7476;DHT22;3779;49.216;8.650;2024-02-26T19:24:51;20.60;49.80
7476;DHT22;3779;49.216;8.650;2024-02-26T19:27:45;20.60;50.00
7476;DHT22;3779;49.216;8.650;2024-02-26T19:37:03;20.60;49.80
7476;DHT22;3779;49.216;8.650;2024-02-26T19:39:52;20.70;49.40
7476;DHT22;3779;49.216;8.650;2024-02-26T19:42:44;20.60;49.70
7476;DHT22;3779;49.216;8.650;2024-02-26T19:45:29;20.60;49.50
7476;DHT22;3779;49.216;8.650;2024-02-26T19:48:15;20.70;46.90
7476;DHT22;3779;49.216;8.650;2024-02-26T19:51:01;20.80;45.70
7476;DHT22;3779;49.216;8.650;2024-02-26T19:53:51;20.70;45.30
7476;DHT22;3779;49.216;8.650;2024-02-26T19:56:37;20.60;45.40
7476;DHT22;3779;49.216;8.650;2024-02-26T19:59:23;20.50;45.80
7476;DHT22;3779;49.216;8.650;2024-02-26T20:02:09;20.50;45.30
7476;DHT22;3779;49.216;8.650;2024-02-26T20:04:54;20.40;46.00
7476;DHT22;3779;49.216;8.650;2024-02-26T20:07:40;20.40;45.70
7476;DHT22;3779;49.216;8.650;2024-02-26T20:10:26;20.40;47.30
7476;DHT22;3779;49.216;8.650;2024-02-26T20:13:12;20.50;45.30
7476;DHT22;3779;49.216;8.650;2024-02-26T20:15:57;20.40;44.90
7476;DHT22;3779;49.216;8.650;2024-02-26T20:18:43;20.40;44.70
7476;DHT22;3779;49.216;8.650;2024-02-26T20:21:29;20.30;45.20
7476;DHT22;3779;49.216;8.650;2024-02-26T20:24:16;20.30;43.80
7476;DHT22;3779;49.216;8.650;2024-02-26T20:27:03;20.30;46.70
7476;DHT22;3779;49.216;8.650;2024-02-26T20:29:50;20.30;45.20
7476;DHT22;3779;49.216;8.650;2024-02-26T20:32:42;20.30;45.20
7476;DHT22;3779;49.216;8.650;2024-02-26T20:35:27;20.30;44.90
7476;DHT22;3779;49.216;8.650;2024-02-26T20:38:13;20.20;43.80
7476;DHT22;3779;49.216;8.650;2024-02-26T20:40:59;20.20;45.30
7476;DHT22;3779;49.216;8.650;2024-02-26T20:43:48;20.20;44.00
7476;DHT22;3779;49.216;8.650;2024-02-26T20:46:39;20.20;43.10
7476;DHT22;3779;49.216;8.650;2024-02-26T20:49:30;20.20;44.80
7476;DHT22;3779;49.216;8.650;2024-02-26T20:52:16;20.20;44.70
7476;DHT22;3779;49.216;8.650;2024-02-26T20:55:04;20.30;44.80
7476;DHT22;3779;49.216;8.650;2024-02-26T21:27:24;20.20;43.30
7476;DHT22;3779;49.216;8.650;2024-02-26T21:30:13;20.10;41.40
7476;DHT22;3779;49.216;8.650;2024-02-26T21:33:01;20.10;42.50
7476;DHT22;3779;49.216;8.650;2024-02-26T21:35:49;20.10;42.30
7476;DHT22;3779;49.216;8.650;2024-02-26T21:38:37;20.10;43.10
7476;DHT22;3779;49.216;8.650;2024-02-26T21:41:24;20.10;44.40
7476;DHT22;3779;49.216;8.650;2024-02-26T21:44:10;20.10;41.20
7476;DHT22;3779;49.216;8.650;2024-02-26T21:46:57;20.40;44.50
7476;DHT22;3779;49.216;8.650;2024-02-26T21:49:44;20.40;43.20
7476;DHT22;3779;49.216;8.650;2024-02-26T21:52:29;20.00;42.90
7476;DHT22;3779;49.216;8.650;2024-02-26T21:55:15;20.10;42.60
7476;DHT22;3779;49.216;8.650;2024-02-26T21:58:03;20.30;42.90
7476;DHT22;3779;49.216;8.650;2024-02-26T22:00:49;20.00;42.20
7476;DHT22;3779;49.216;8.650;2024-02-26T22:03:35;20.00;42.70
7476;DHT22;3779;49.216;8.650;2024-02-26T22:06:21;20.00;43.10
7476;DHT22;3779;49.216;8.650;2024-02-26T22:09:07;20.30;43.80
7476;DHT22;3779;49.216;8.650;2024-02-26T22:11:53;20.00;43.20
7476;DHT22;3779;49.216;8.650;2024-02-26T22:14:41;20.00;43.60
7476;DHT22;3779;49.216;8.650;2024-02-26T22:17:28;20.00;44.60
7476;DHT22;3779;49.216;8.650;2024-02-26T22:20:14;20.00;43.30
7476;DHT22;3779;49.216;8.650;2024-02-26T22:23:00;19.90;41.80
7476;DHT22;3779;49.216;8.650;2024-02-26T22:25:46;19.90;44.30
7476;DHT22;3779;49.216;8.650;2024-02-26T22:28:32;20.30;45.10
7476;DHT22;3779;49.216;8.650;2024-02-26T22:31:18;20.00;43.70
7476;DHT22;3779;49.216;8.650;2024-02-26T23:16:30;20.10;43.10
7476;DHT22;3779;49.216;8.650;2024-02-26T23:19:16;20.00;44.40
7476;DHT22;3779;49.216;8.650;2024-02-26T23:22:04;19.90;42.60
7476;DHT22;3779;49.216;8.650;2024-02-26T23:24:53;19.90;43.10
7476;DHT22;3779;49.216;8.650;2024-02-26T23:27:42;19.90;44.10
7476;DHT22;3779;49.216;8.650;2024-02-26T23:30:28;20.00;44.10
7476;DHT22;3779;49.216;8.650;2024-02-26T23:33:14;20.00;42.30
7476;DHT22;3779;49.216;8.650;2024-02-26T23:36:00;20.10;44.00
7476;DHT22;3779;49.216;8.650;2024-02-26T23:38:46;20.00;44.40
7476;DHT22;3779;49.216;8.650;2024-02-26T23:41:32;20.00;42.60
7476;DHT22;3779;49.216;8.650;2024-02-26T23:44:18;20.10;43.60
7476;DHT22;3779;49.216;8.650;2024-02-26T23:47:04;20.10;42.90
7476;DHT22;3779;49.216;8.650;2024-02-26T23:49:50;20.10;43.20
7476;DHT22;3779;49.216;8.650;2024-02-26T23:52:36;20.00;41.10